sensor_id;sensor_type;location;lat;lon;timestamp;P1;durP1;ratioP1;P2;durP2;ratioP2
84790;SDS011;75024;43.486;3.794;2024-01-15T00:02:04;2.20;;;2.00;;
84790;SDS011;75024;43.486;3.794;2024-01-15T00:04:31;2.40;;;1.90;;
84790;SDS011;75024;43.486;3.794;2024-01-15T00:07:01;2.45;;;1.75;;
84790;SDS011;75024;43.486;3.794;2024-01-15T00:09:27;3.13;;;1.70;;
84790;SDS011;75024;43.486;3.794;2024-01-15T00:11:52;2.17;;;1.67;;
84790;SDS011;75024;43.486;3.794;2024-01-15T00:14:18;2.50;;;1.38;;
84790;SDS011;75024;43.486;3.794;2024-01-15T00:16:45;4.93;;;2.10;;
84790;SDS011;75024;43.486;3.794;2024-01-15T00:19:11;1.45;;;1.23;;
84790;SDS011;75024;43.486;3.794;2024-01-15T00:21:36;2.28;;;1.35;;
84790;SDS011;75024;43.486;3.794;2024-01-15T00:24:02;3.33;;;1.90;;
84790;SDS011;75024;43.486;3.794;2024-01-15T00:26:28;3.83;;;2.03;;
84790;SDS011;75024;43.486;3.794;2024-01-15T00:28:53;3.65;;;1.90;;
84790;SDS011;75024;43.486;3.794;2024-01-15T00:31:19;2.75;;;1.90;;
84790;SDS011;75024;43.486;3.794;2024-01-15T00:33:45;2.30;;;1.95;;
84790;SDS011;75024;43.486;3.794;2024-01-15T00:36:11;2.35;;;1.67;;
84790;SDS011;75024;43.486;3.794;2024-01-15T00:38:36;3.05;;;2.00;;
84790;SDS011;75024;43.486;3.794;2024-01-15T00:41:02;2.95;;;1.52;;
84790;SDS011;75024;43.486;3.794;2024-01-15T00:43:28;3.45;;;1.60;;
84790;SDS011;75024;43.486;3.794;2024-01-15T00:45:53;2.78;;;1.73;;
84790;SDS011;75024;43.486;3.794;2024-01-15T00:48:19;2.08;;;1.40;;
84790;SDS011;75024;43.486;3.794;2024-01-15T00:50:45;1.65;;;1.52;;
84790;SDS011;75024;43.486;3.794;2024-01-15T00:53:10;1.95;;;1.33;;
84790;SDS011;75024;43.486;3.794;2024-01-15T00:55:36;2.75;;;1.70;;
84790;SDS011;75024;43.486;3.794;2024-01-15T00:58:02;3.47;;;1.63;;
84790;SDS011;75024;43.486;3.794;2024-01-15T01:00:28;1.90;;;1.27;;
84790;SDS011;75024;43.486;3.794;2024-01-15T01:02:54;2.28;;;1.42;;
84790;SDS011;75024;43.486;3.794;2024-01-15T01:05:20;2.47;;;1.50;;
84790;SDS011;75024;43.486;3.794;2024-01-15T01:07:45;3.83;;;2.08;;
84790;SDS011;75024;43.486;3.794;2024-01-15T01:10:11;2.63;;;1.75;;
84790;SDS011;75024;43.486;3.794;2024-01-15T01:12:37;2.13;;;1.40;;
84790;SDS011;75024;43.486;3.794;2024-01-15T01:15:03;2.97;;;1.30;;
84790;SDS011;75024;43.486;3.794;2024-01-15T01:17:29;1.80;;;1.30;;
84790;SDS011;75024;43.486;3.794;2024-01-15T01:19:55;2.70;;;1.67;;
84790;SDS011;75024;43.486;3.794;2024-01-15T01:22:21;2.47;;;1.10;;
84790;SDS011;75024;43.486;3.794;2024-01-15T01:24:46;2.28;;;1.60;;
84790;SDS011;75024;43.486;3.794;2024-01-15T01:27:12;4.93;;;2.08;;
84790;SDS011;75024;43.486;3.794;2024-01-15T01:29:38;3.65;;;1.80;;
84790;SDS011;75024;43.486;3.794;2024-01-15T01:32:03;2.15;;;1.50;;
84790;SDS011;75024;43.486;3.794;2024-01-15T01:34:29;2.05;;;1.52;;
84790;SDS011;75024;43.486;3.794;2024-01-15T01:36:57;3.08;;;1.45;;
84790;SDS011;75024;43.486;3.794;2024-01-15T01:39:23;2.65;;;1.83;;
84790;SDS011;75024;43.486;3.794;2024-01-15T01:41:48;2.33;;;1.45;;
84790;SDS011;75024;43.486;3.794;2024-01-15T01:44:14;3.63;;;1.77;;
84790;SDS011;75024;43.486;3.794;2024-01-15T01:46:40;2.72;;;2.05;;
84790;SDS011;75024;43.486;3.794;2024-01-15T01:49:07;3.70;;;1.77;;
84790;SDS011;75024;43.486;3.794;2024-01-15T01:51:34;3.38;;;1.83;;
84790;SDS011;75024;43.486;3.794;2024-01-15T01:54:01;3.95;;;1.80;;
84790;SDS011;75024;43.486;3.794;2024-01-15T01:56:27;3.97;;;1.92;;
84790;SDS011;75024;43.486;3.794;2024-01-15T01:58:53;3.40;;;2.00;;
84790;SDS011;75024;43.486;3.794;2024-01-15T02:01:19;2.95;;;2.13;;
84790;SDS011;75024;43.486;3.794;2024-01-15T02:03:44;3.28;;;1.73;;
84790;SDS011;75024;43.486;3.794;2024-01-15T02:06:10;3.30;;;1.98;;
84790;SDS011;75024;43.486;3.794;2024-01-15T02:08:36;2.35;;;1.70;;
84790;SDS011;75024;43.486;3.794;2024-01-15T02:11:03;1.83;;;1.23;;
84790;SDS011;75024;43.486;3.794;2024-01-15T02:13:28;2.72;;;2.10;;
84790;SDS011;75024;43.486;3.794;2024-01-15T02:15:54;2.58;;;1.98;;
84790;SDS011;75024;43.486;3.794;2024-01-15T02:18:20;2.80;;;2.47;;
84790;SDS011;75024;43.486;3.794;2024-01-15T02:20:45;2.70;;;2.20;;
84790;SDS011;75024;43.486;3.794;2024-01-15T02:23:12;3.78;;;2.10;;
84790;SDS011;75024;43.486;3.794;2024-01-15T02:25:42;2.90;;;2.22;;
84790;SDS011;75024;43.486;3.794;2024-01-15T02:28:13;3.33;;;2.38;;
84790;SDS011;75024;43.486;3.794;2024-01-15T02:30:40;3.97;;;1.92;;
84790;SDS011;75024;43.486;3.794;2024-01-15T02:33:07;3.67;;;2.50;;
84790;SDS011;75024;43.486;3.794;2024-01-15T02:35:33;3.38;;;1.90;;
84790;SDS011;75024;43.486;3.794;2024-01-15T02:38:01;3.30;;;2.20;;
84790;SDS011;75024;43.486;3.794;2024-01-15T02:40:27;3.40;;;2.30;;
84790;SDS011;75024;43.486;3.794;2024-01-15T02:42:54;2.83;;;1.98;;
84790;SDS011;75024;43.486;3.794;2024-01-15T02:45:19;6.53;;;2.90;;
84790;SDS011;75024;43.486;3.794;2024-01-15T02:47:46;3.33;;;2.63;;
84790;SDS011;75024;43.486;3.794;2024-01-15T02:50:12;3.40;;;2.80;;
84790;SDS011;75024;43.486;3.794;2024-01-15T02:52:38;3.50;;;2.58;;
84790;SDS011;75024;43.486;3.794;2024-01-15T02:55:03;4.10;;;2.50;;
84790;SDS011;75024;43.486;3.794;2024-01-15T02:57:29;3.25;;;2.20;;
84790;SDS011;75024;43.486;3.794;2024-01-15T02:59:55;4.50;;;2.58;;
84790;SDS011;75024;43.486;3.794;2024-01-15T03:02:20;4.60;;;2.75;;
84790;SDS011;75024;43.486;3.794;2024-01-15T03:04:46;3.90;;;2.55;;
84790;SDS011;75024;43.486;3.794;2024-01-15T03:07:12;3.92;;;2.70;;
84790;SDS011;75024;43.486;3.794;2024-01-15T03:09:38;4.57;;;3.25;;
84790;SDS011;75024;43.486;3.794;2024-01-15T03:12:03;2.88;;;2.40;;
84790;SDS011;75024;43.486;3.794;2024-01-15T03:14:29;3.75;;;2.88;;
84790;SDS011;75024;43.486;3.794;2024-01-15T03:16:55;4.70;;;2.65;;
84790;SDS011;75024;43.486;3.794;2024-01-15T03:19:21;4.05;;;2.78;;
84790;SDS011;75024;43.486;3.794;2024-01-15T03:21:47;3.78;;;2.90;;
84790;SDS011;75024;43.486;3.794;2024-01-15T03:24:12;3.00;;;2.63;;
84790;SDS011;75024;43.486;3.794;2024-01-15T03:26:38;5.07;;;2.65;;
84790;SDS011;75024;43.486;3.794;2024-01-15T03:29:04;3.70;;;2.55;;
84790;SDS011;75024;43.486;3.794;2024-01-15T03:31:30;5.50;;;3.50;;
84790;SDS011;75024;43.486;3.794;2024-01-15T03:33:55;4.55;;;2.97;;
84790;SDS011;75024;43.486;3.794;2024-01-15T03:36:21;6.25;;;2.97;;
84790;SDS011;75024;43.486;3.794;2024-01-15T03:38:47;4.35;;;2.22;;
84790;SDS011;75024;43.486;3.794;2024-01-15T03:41:13;4.05;;;3.10;;
84790;SDS011;75024;43.486;3.794;2024-01-15T03:43:38;4.35;;;2.50;;
84790;SDS011;75024;43.486;3.794;2024-01-15T03:46:05;3.88;;;2.35;;
84790;SDS011;75024;43.486;3.794;2024-01-15T03:48:30;4.05;;;2.72;;
84790;SDS011;75024;43.486;3.794;2024-01-15T03:50:56;5.88;;;3.03;;
84790;SDS011;75024;43.486;3.794;2024-01-15T03:53:22;3.60;;;2.85;;
84790;SDS011;75024;43.486;3.794;2024-01-15T03:55:47;4.07;;;2.75;;
84790;SDS011;75024;43.486;3.794;2024-01-15T03:58:14;7.78;;;2.90;;
84790;SDS011;75024;43.486;3.794;2024-01-15T04:00:42;4.78;;;2.42;;
84790;SDS011;75024;43.486;3.794;2024-01-15T04:03:08;5.78;;;2.63;;
84790;SDS011;75024;43.486;3.794;2024-01-15T04:05:34;5.28;;;3.10;;
84790;SDS011;75024;43.486;3.794;2024-01-15T04:08:00;9.27;;;3.55;;
84790;SDS011;75024;43.486;3.794;2024-01-15T04:10:25;5.68;;;3.00;;
84790;SDS011;75024;43.486;3.794;2024-01-15T04:12:51;5.65;;;3.10;;
84790;SDS011;75024;43.486;3.794;2024-01-15T04:15:17;3.17;;;2.50;;
84790;SDS011;75024;43.486;3.794;2024-01-15T04:17:42;4.47;;;2.60;;
84790;SDS011;75024;43.486;3.794;2024-01-15T04:20:08;6.18;;;2.80;;
84790;SDS011;75024;43.486;3.794;2024-01-15T04:22:35;5.28;;;3.38;;
84790;SDS011;75024;43.486;3.794;2024-01-15T04:25:01;4.55;;;3.10;;
84790;SDS011;75024;43.486;3.794;2024-01-15T04:27:26;4.70;;;3.13;;
84790;SDS011;75024;43.486;3.794;2024-01-15T04:29:52;4.78;;;3.33;;
84790;SDS011;75024;43.486;3.794;2024-01-15T04:32:18;4.78;;;2.88;;
84790;SDS011;75024;43.486;3.794;2024-01-15T04:34:44;3.38;;;2.40;;
84790;SDS011;75024;43.486;3.794;2024-01-15T04:37:10;4.78;;;2.35;;
84790;SDS011;75024;43.486;3.794;2024-01-15T04:39:35;4.03;;;2.50;;
84790;SDS011;75024;43.486;3.794;2024-01-15T04:42:01;4.13;;;2.90;;
84790;SDS011;75024;43.486;3.794;2024-01-15T04:44:27;3.63;;;2.47;;
84790;SDS011;75024;43.486;3.794;2024-01-15T04:46:53;3.40;;;2.65;;
84790;SDS011;75024;43.486;3.794;2024-01-15T04:49:19;3.45;;;2.05;;
84790;SDS011;75024;43.486;3.794;2024-01-15T04:51:44;6.07;;;2.90;;
84790;SDS011;75024;43.486;3.794;2024-01-15T04:54:10;3.40;;;2.42;;
84790;SDS011;75024;43.486;3.794;2024-01-15T04:56:36;3.85;;;2.55;;
84790;SDS011;75024;43.486;3.794;2024-01-15T04:59:02;4.22;;;2.35;;
84790;SDS011;75024;43.486;3.794;2024-01-15T05:01:31;2.60;;;2.08;;
84790;SDS011;75024;43.486;3.794;2024-01-15T05:03:57;2.60;;;2.40;;
84790;SDS011;75024;43.486;3.794;2024-01-15T05:06:23;3.30;;;2.13;;
84790;SDS011;75024;43.486;3.794;2024-01-15T05:08:48;4.13;;;2.80;;
84790;SDS011;75024;43.486;3.794;2024-01-15T05:11:14;4.13;;;2.75;;
84790;SDS011;75024;43.486;3.794;2024-01-15T05:13:40;3.40;;;2.28;;
84790;SDS011;75024;43.486;3.794;2024-01-15T05:16:06;4.07;;;3.20;;
84790;SDS011;75024;43.486;3.794;2024-01-15T05:18:31;4.93;;;2.50;;
84790;SDS011;75024;43.486;3.794;2024-01-15T05:20:57;3.97;;;2.55;;
84790;SDS011;75024;43.486;3.794;2024-01-15T05:23:23;3.42;;;2.17;;
84790;SDS011;75024;43.486;3.794;2024-01-15T05:25:48;4.90;;;2.97;;
84790;SDS011;75024;43.486;3.794;2024-01-15T05:28:14;2.58;;;2.38;;
84790;SDS011;75024;43.486;3.794;2024-01-15T05:30:40;4.05;;;2.67;;
84790;SDS011;75024;43.486;3.794;2024-01-15T05:33:05;3.80;;;2.50;;
84790;SDS011;75024;43.486;3.794;2024-01-15T05:35:32;3.50;;;2.20;;
84790;SDS011;75024;43.486;3.794;2024-01-15T05:37:58;5.22;;;2.40;;
84790;SDS011;75024;43.486;3.794;2024-01-15T05:40:24;3.17;;;2.20;;
84790;SDS011;75024;43.486;3.794;2024-01-15T05:42:49;3.47;;;2.40;;
84790;SDS011;75024;43.486;3.794;2024-01-15T05:45:15;3.75;;;2.42;;
84790;SDS011;75024;43.486;3.794;2024-01-15T05:47:41;4.55;;;2.38;;
84790;SDS011;75024;43.486;3.794;2024-01-15T05:50:07;3.63;;;2.30;;
84790;SDS011;75024;43.486;3.794;2024-01-15T05:52:33;4.68;;;2.45;;
84790;SDS011;75024;43.486;3.794;2024-01-15T05:54:59;3.17;;;2.70;;
84790;SDS011;75024;43.486;3.794;2024-01-15T05:57:24;4.00;;;2.55;;
84790;SDS011;75024;43.486;3.794;2024-01-15T05:59:50;4.50;;;2.80;;
84790;SDS011;75024;43.486;3.794;2024-01-15T06:02:16;4.97;;;3.03;;
84790;SDS011;75024;43.486;3.794;2024-01-15T06:04:41;5.20;;;3.03;;
84790;SDS011;75024;43.486;3.794;2024-01-15T06:07:07;4.63;;;2.70;;
84790;SDS011;75024;43.486;3.794;2024-01-15T06:09:33;3.53;;;2.42;;
84790;SDS011;75024;43.486;3.794;2024-01-15T06:11:58;3.05;;;2.30;;
84790;SDS011;75024;43.486;3.794;2024-01-15T06:14:24;3.75;;;2.10;;
84790;SDS011;75024;43.486;3.794;2024-01-15T06:16:50;4.00;;;2.47;;
84790;SDS011;75024;43.486;3.794;2024-01-15T06:19:15;4.63;;;2.85;;
84790;SDS011;75024;43.486;3.794;2024-01-15T06:21:41;3.03;;;2.33;;
84790;SDS011;75024;43.486;3.794;2024-01-15T06:24:06;4.55;;;2.70;;
84790;SDS011;75024;43.486;3.794;2024-01-15T06:26:34;4.57;;;2.38;;
84790;SDS011;75024;43.486;3.794;2024-01-15T06:29:00;6.93;;;2.53;;
84790;SDS011;75024;43.486;3.794;2024-01-15T06:31:26;3.42;;;2.67;;
84790;SDS011;75024;43.486;3.794;2024-01-15T06:33:51;3.13;;;2.60;;
84790;SDS011;75024;43.486;3.794;2024-01-15T06:36:17;4.32;;;2.50;;
84790;SDS011;75024;43.486;3.794;2024-01-15T06:38:43;3.78;;;2.95;;
84790;SDS011;75024;43.486;3.794;2024-01-15T06:41:09;3.65;;;2.70;;
84790;SDS011;75024;43.486;3.794;2024-01-15T06:43:35;3.40;;;2.55;;
84790;SDS011;75024;43.486;3.794;2024-01-15T06:46:00;3.88;;;2.30;;
84790;SDS011;75024;43.486;3.794;2024-01-15T06:48:26;3.45;;;2.40;;
84790;SDS011;75024;43.486;3.794;2024-01-15T06:50:52;3.58;;;2.80;;
84790;SDS011;75024;43.486;3.794;2024-01-15T06:53:17;4.30;;;2.40;;
84790;SDS011;75024;43.486;3.794;2024-01-15T06:55:43;3.47;;;2.35;;
84790;SDS011;75024;43.486;3.794;2024-01-15T06:58:09;4.30;;;2.53;;
84790;SDS011;75024;43.486;3.794;2024-01-15T07:00:34;4.30;;;2.42;;
84790;SDS011;75024;43.486;3.794;2024-01-15T07:03:00;4.57;;;2.72;;
84790;SDS011;75024;43.486;3.794;2024-01-15T07:05:26;5.45;;;2.92;;
84790;SDS011;75024;43.486;3.794;2024-01-15T07:07:51;4.22;;;2.53;;
84790;SDS011;75024;43.486;3.794;2024-01-15T07:10:17;3.55;;;2.58;;
84790;SDS011;75024;43.486;3.794;2024-01-15T07:12:43;3.85;;;2.72;;
84790;SDS011;75024;43.486;3.794;2024-01-15T07:15:09;4.75;;;2.50;;
84790;SDS011;75024;43.486;3.794;2024-01-15T07:17:35;4.25;;;2.60;;
84790;SDS011;75024;43.486;3.794;2024-01-15T07:20:01;3.92;;;2.65;;
84790;SDS011;75024;43.486;3.794;2024-01-15T07:22:27;4.20;;;3.00;;
84790;SDS011;75024;43.486;3.794;2024-01-15T07:24:52;4.80;;;3.13;;
84790;SDS011;75024;43.486;3.794;2024-01-15T07:27:18;4.68;;;2.50;;
84790;SDS011;75024;43.486;3.794;2024-01-15T07:29:43;4.30;;;2.40;;
84790;SDS011;75024;43.486;3.794;2024-01-15T07:32:09;4.15;;;3.10;;
84790;SDS011;75024;43.486;3.794;2024-01-15T07:34:35;6.30;;;2.80;;
84790;SDS011;75024;43.486;3.794;2024-01-15T07:37:01;4.82;;;3.05;;
84790;SDS011;75024;43.486;3.794;2024-01-15T07:39:27;4.57;;;2.78;;
84790;SDS011;75024;43.486;3.794;2024-01-15T07:41:53;6.57;;;4.75;;
84790;SDS011;75024;43.486;3.794;2024-01-15T07:44:19;5.55;;;3.85;;
84790;SDS011;75024;43.486;3.794;2024-01-15T07:46:48;5.80;;;3.15;;
84790;SDS011;75024;43.486;3.794;2024-01-15T07:49:14;3.88;;;3.00;;
84790;SDS011;75024;43.486;3.794;2024-01-15T07:51:40;4.55;;;3.10;;
84790;SDS011;75024;43.486;3.794;2024-01-15T07:54:06;6.82;;;3.25;;
84790;SDS011;75024;43.486;3.794;2024-01-15T07:56:32;4.65;;;3.00;;
84790;SDS011;75024;43.486;3.794;2024-01-15T07:58:58;4.03;;;3.05;;
84790;SDS011;75024;43.486;3.794;2024-01-15T08:01:24;4.35;;;3.30;;
84790;SDS011;75024;43.486;3.794;2024-01-15T08:03:49;6.28;;;3.78;;
84790;SDS011;75024;43.486;3.794;2024-01-15T08:06:15;5.70;;;3.15;;
84790;SDS011;75024;43.486;3.794;2024-01-15T08:08:41;3.67;;;2.90;;
84790;SDS011;75024;43.486;3.794;2024-01-15T08:11:06;7.63;;;4.35;;
84790;SDS011;75024;43.486;3.794;2024-01-15T08:13:32;5.75;;;3.83;;
84790;SDS011;75024;43.486;3.794;2024-01-15T08:15:58;4.57;;;3.13;;
84790;SDS011;75024;43.486;3.794;2024-01-15T08:18:23;4.70;;;2.78;;
84790;SDS011;75024;43.486;3.794;2024-01-15T08:20:50;5.75;;;2.63;;
84790;SDS011;75024;43.486;3.794;2024-01-15T08:23:17;5.15;;;3.30;;
84790;SDS011;75024;43.486;3.794;2024-01-15T08:25:43;8.40;;;3.03;;
84790;SDS011;75024;43.486;3.794;2024-01-15T08:28:08;9.35;;;3.63;;
84790;SDS011;75024;43.486;3.794;2024-01-15T08:30:34;6.80;;;3.40;;
84790;SDS011;75024;43.486;3.794;2024-01-15T08:33:00;6.85;;;3.97;;
84790;SDS011;75024;43.486;3.794;2024-01-15T08:35:25;12.80;;;6.82;;
84790;SDS011;75024;43.486;3.794;2024-01-15T08:37:54;10.13;;;5.30;;
84790;SDS011;75024;43.486;3.794;2024-01-15T08:40:20;12.55;;;5.10;;
84790;SDS011;75024;43.486;3.794;2024-01-15T08:42:45;6.93;;;4.20;;
84790;SDS011;75024;43.486;3.794;2024-01-15T08:45:11;7.53;;;4.22;;
84790;SDS011;75024;43.486;3.794;2024-01-15T08:47:37;5.78;;;3.10;;
84790;SDS011;75024;43.486;3.794;2024-01-15T08:50:03;4.82;;;2.90;;
84790;SDS011;75024;43.486;3.794;2024-01-15T08:52:29;3.83;;;2.25;;
84790;SDS011;75024;43.486;3.794;2024-01-15T08:54:56;1.30;;;1.20;;
84790;SDS011;75024;43.486;3.794;2024-01-15T08:57:22;1.52;;;0.98;;
84790;SDS011;75024;43.486;3.794;2024-01-15T08:59:48;1.23;;;0.90;;
84790;SDS011;75024;43.486;3.794;2024-01-15T09:02:13;1.75;;;0.90;;
84790;SDS011;75024;43.486;3.794;2024-01-15T09:04:39;2.72;;;1.20;;
84790;SDS011;75024;43.486;3.794;2024-01-15T09:07:06;2.15;;;1.00;;
84790;SDS011;75024;43.486;3.794;2024-01-15T09:09:32;1.83;;;1.20;;
84790;SDS011;75024;43.486;3.794;2024-01-15T09:11:59;1.15;;;0.80;;
84790;SDS011;75024;43.486;3.794;2024-01-15T09:14:24;1.67;;;1.13;;
84790;SDS011;75024;43.486;3.794;2024-01-15T09:16:52;1.50;;;0.88;;
84790;SDS011;75024;43.486;3.794;2024-01-15T09:19:18;1.75;;;1.13;;
84790;SDS011;75024;43.486;3.794;2024-01-15T09:21:44;2.22;;;1.08;;
84790;SDS011;75024;43.486;3.794;2024-01-15T09:24:10;1.35;;;0.95;;
84790;SDS011;75024;43.486;3.794;2024-01-15T09:26:36;1.25;;;1.00;;
84790;SDS011;75024;43.486;3.794;2024-01-15T09:29:01;1.17;;;0.60;;
84790;SDS011;75024;43.486;3.794;2024-01-15T09:31:28;1.95;;;1.00;;
84790;SDS011;75024;43.486;3.794;2024-01-15T09:33:53;2.47;;;1.20;;
84790;SDS011;75024;43.486;3.794;2024-01-15T09:36:24;1.35;;;1.10;;
84790;SDS011;75024;43.486;3.794;2024-01-15T09:38:50;1.58;;;0.88;;
84790;SDS011;75024;43.486;3.794;2024-01-15T09:41:16;2.92;;;1.10;;
84790;SDS011;75024;43.486;3.794;2024-01-15T09:43:42;2.75;;;1.48;;
84790;SDS011;75024;43.486;3.794;2024-01-15T09:46:08;2.33;;;1.63;;
84790;SDS011;75024;43.486;3.794;2024-01-15T09:48:34;2.90;;;1.40;;
84790;SDS011;75024;43.486;3.794;2024-01-15T09:51:03;1.15;;;1.00;;
84790;SDS011;75024;43.486;3.794;2024-01-15T09:53:30;1.45;;;1.08;;
84790;SDS011;75024;43.486;3.794;2024-01-15T09:55:57;10.68;;;2.17;;
84790;SDS011;75024;43.486;3.794;2024-01-15T09:58:23;2.25;;;1.17;;
84790;SDS011;75024;43.486;3.794;2024-01-15T10:00:49;2.83;;;2.00;;
84790;SDS011;75024;43.486;3.794;2024-01-15T10:03:16;5.70;;;1.88;;
84790;SDS011;75024;43.486;3.794;2024-01-15T10:05:43;4.00;;;1.27;;
84790;SDS011;75024;43.486;3.794;2024-01-15T10:08:08;1.00;;;0.90;;
84790;SDS011;75024;43.486;3.794;2024-01-15T10:10:36;3.55;;;0.70;;
84790;SDS011;75024;43.486;3.794;2024-01-15T10:13:03;1.85;;;0.80;;
84790;SDS011;75024;43.486;3.794;2024-01-15T10:15:29;4.38;;;3.22;;
84790;SDS011;75024;43.486;3.794;2024-01-15T10:18:01;2.47;;;1.92;;
84790;SDS011;75024;43.486;3.794;2024-01-15T10:20:27;4.18;;;1.52;;
84790;SDS011;75024;43.486;3.794;2024-01-15T10:22:53;2.05;;;1.23;;
84790;SDS011;75024;43.486;3.794;2024-01-15T10:25:18;1.05;;;0.70;;
84790;SDS011;75024;43.486;3.794;2024-01-15T10:27:58;0.43;;;0.40;;
84790;SDS011;75024;43.486;3.794;2024-01-15T10:30:28;1.75;;;0.82;;
84790;SDS011;75024;43.486;3.794;2024-01-15T10:33:01;1.33;;;1.17;;
84790;SDS011;75024;43.486;3.794;2024-01-15T10:35:29;1.75;;;0.90;;
84790;SDS011;75024;43.486;3.794;2024-01-15T10:37:55;1.25;;;0.60;;
84790;SDS011;75024;43.486;3.794;2024-01-15T10:40:21;0.95;;;0.95;;
84790;SDS011;75024;43.486;3.794;2024-01-15T10:42:47;2.45;;;0.73;;
84790;SDS011;75024;43.486;3.794;2024-01-15T10:45:13;2.85;;;1.38;;
84790;SDS011;75024;43.486;3.794;2024-01-15T10:47:40;1.17;;;0.90;;
84790;SDS011;75024;43.486;3.794;2024-01-15T10:50:06;1.50;;;1.10;;
84790;SDS011;75024;43.486;3.794;2024-01-15T10:52:33;1.13;;;0.90;;
84790;SDS011;75024;43.486;3.794;2024-01-15T10:55:00;1.50;;;1.10;;
84790;SDS011;75024;43.486;3.794;2024-01-15T10:57:28;3.25;;;1.30;;
84790;SDS011;75024;43.486;3.794;2024-01-15T10:59:55;3.95;;;2.08;;
84790;SDS011;75024;43.486;3.794;2024-01-15T11:02:20;3.05;;;1.60;;
84790;SDS011;75024;43.486;3.794;2024-01-15T11:04:46;2.83;;;1.10;;
84790;SDS011;75024;43.486;3.794;2024-01-15T11:07:13;0.85;;;0.73;;
84790;SDS011;75024;43.486;3.794;2024-01-15T11:09:39;1.92;;;1.00;;
84790;SDS011;75024;43.486;3.794;2024-01-15T11:12:11;1.38;;;0.63;;
84790;SDS011;75024;43.486;3.794;2024-01-15T11:14:41;1.88;;;0.85;;
84790;SDS011;75024;43.486;3.794;2024-01-15T11:17:11;1.30;;;1.20;;
84790;SDS011;75024;43.486;3.794;2024-01-15T11:19:38;1.20;;;1.10;;
84790;SDS011;75024;43.486;3.794;2024-01-15T11:22:08;1.90;;;0.75;;
84790;SDS011;75024;43.486;3.794;2024-01-15T11:24:40;1.65;;;0.95;;
84790;SDS011;75024;43.486;3.794;2024-01-15T11:27:07;1.75;;;0.70;;
84790;SDS011;75024;43.486;3.794;2024-01-15T11:29:34;1.50;;;1.35;;
84790;SDS011;75024;43.486;3.794;2024-01-15T11:32:09;3.85;;;3.03;;
84790;SDS011;75024;43.486;3.794;2024-01-15T11:34:51;1.30;;;0.80;;
84790;SDS011;75024;43.486;3.794;2024-01-15T11:37:18;1.23;;;0.88;;
84790;SDS011;75024;43.486;3.794;2024-01-15T11:39:45;2.45;;;1.23;;
84790;SDS011;75024;43.486;3.794;2024-01-15T11:42:14;1.98;;;1.10;;
84790;SDS011;75024;43.486;3.794;2024-01-15T11:44:41;1.00;;;0.88;;
84790;SDS011;75024;43.486;3.794;2024-01-15T11:47:08;2.03;;;1.13;;
84790;SDS011;75024;43.486;3.794;2024-01-15T11:52:18;1.77;;;0.60;;
84790;SDS011;75024;43.486;3.794;2024-01-15T11:54:49;1.73;;;1.63;;
84790;SDS011;75024;43.486;3.794;2024-01-15T11:57:42;1.05;;;0.80;;
84790;SDS011;75024;43.486;3.794;2024-01-15T12:00:12;1.35;;;0.70;;
84790;SDS011;75024;43.486;3.794;2024-01-15T12:02:39;2.03;;;0.77;;
84790;SDS011;75024;43.486;3.794;2024-01-15T12:05:09;1.02;;;0.60;;
84790;SDS011;75024;43.486;3.794;2024-01-15T12:07:38;2.05;;;1.15;;
84790;SDS011;75024;43.486;3.794;2024-01-15T12:10:07;2.03;;;1.20;;
84790;SDS011;75024;43.486;3.794;2024-01-15T12:12:51;0.60;;;0.50;;
84790;SDS011;75024;43.486;3.794;2024-01-15T12:15:30;0.80;;;0.57;;
84790;SDS011;75024;43.486;3.794;2024-01-15T12:17:57;0.77;;;0.77;;
84790;SDS011;75024;43.486;3.794;2024-01-15T12:20:28;3.42;;;1.90;;
84790;SDS011;75024;43.486;3.794;2024-01-15T12:22:54;1.83;;;0.80;;
84790;SDS011;75024;43.486;3.794;2024-01-15T12:25:21;1.00;;;0.70;;
84790;SDS011;75024;43.486;3.794;2024-01-15T12:27:47;0.70;;;0.70;;
84790;SDS011;75024;43.486;3.794;2024-01-15T12:30:13;1.15;;;0.50;;
84790;SDS011;75024;43.486;3.794;2024-01-15T12:32:40;1.25;;;0.50;;
84790;SDS011;75024;43.486;3.794;2024-01-15T12:35:07;1.95;;;1.60;;
84790;SDS011;75024;43.486;3.794;2024-01-15T12:37:35;2.30;;;1.60;;
84790;SDS011;75024;43.486;3.794;2024-01-15T12:40:04;3.53;;;1.40;;
84790;SDS011;75024;43.486;3.794;2024-01-15T12:42:32;2.15;;;1.40;;
84790;SDS011;75024;43.486;3.794;2024-01-15T12:44:58;5.07;;;3.58;;
84790;SDS011;75024;43.486;3.794;2024-01-15T12:47:25;7.40;;;5.22;;
84790;SDS011;75024;43.486;3.794;2024-01-15T12:49:53;6.15;;;3.40;;
84790;SDS011;75024;43.486;3.794;2024-01-15T12:52:20;4.20;;;2.97;;
84790;SDS011;75024;43.486;3.794;2024-01-15T12:54:49;3.33;;;2.03;;
84790;SDS011;75024;43.486;3.794;2024-01-15T12:57:15;0.68;;;0.68;;
84790;SDS011;75024;43.486;3.794;2024-01-15T12:59:41;0.65;;;0.47;;
84790;SDS011;75024;43.486;3.794;2024-01-15T13:02:08;0.50;;;0.50;;
84790;SDS011;75024;43.486;3.794;2024-01-15T13:04:33;1.23;;;0.13;;
84790;SDS011;75024;43.486;3.794;2024-01-15T13:06:59;1.05;;;0.20;;
84790;SDS011;75024;43.486;3.794;2024-01-15T13:09:24;0.22;;;0.08;;
84790;SDS011;75024;43.486;3.794;2024-01-15T13:11:50;0.10;;;0.00;;
84790;SDS011;75024;43.486;3.794;2024-01-15T13:14:17;0.57;;;0.10;;
84790;SDS011;75024;43.486;3.794;2024-01-15T13:16:43;0.10;;;0.10;;
84790;SDS011;75024;43.486;3.794;2024-01-15T13:19:09;0.35;;;0.35;;
84790;SDS011;75024;43.486;3.794;2024-01-15T13:21:36;0.20;;;0.15;;
84790;SDS011;75024;43.486;3.794;2024-01-15T13:24:02;0.00;;;0.00;;
84790;SDS011;75024;43.486;3.794;2024-01-15T13:26:30;0.75;;;0.10;;
84790;SDS011;75024;43.486;3.794;2024-01-15T13:28:57;0.63;;;0.10;;
84790;SDS011;75024;43.486;3.794;2024-01-15T13:31:24;0.10;;;0.10;;
84790;SDS011;75024;43.486;3.794;2024-01-15T13:33:50;0.40;;;0.20;;
84790;SDS011;75024;43.486;3.794;2024-01-15T13:36:15;0.15;;;0.15;;
84790;SDS011;75024;43.486;3.794;2024-01-15T13:38:41;0.20;;;0.10;;
84790;SDS011;75024;43.486;3.794;2024-01-15T13:41:07;0.63;;;0.20;;
84790;SDS011;75024;43.486;3.794;2024-01-15T13:43:33;0.28;;;0.10;;
84790;SDS011;75024;43.486;3.794;2024-01-15T13:45:59;0.20;;;0.15;;
84790;SDS011;75024;43.486;3.794;2024-01-15T13:48:25;0.20;;;0.20;;
84790;SDS011;75024;43.486;3.794;2024-01-15T13:50:51;0.20;;;0.10;;
84790;SDS011;75024;43.486;3.794;2024-01-15T13:53:18;0.20;;;0.20;;
84790;SDS011;75024;43.486;3.794;2024-01-15T13:55:44;0.30;;;0.30;;
84790;SDS011;75024;43.486;3.794;2024-01-15T13:58:10;4.22;;;0.60;;
84790;SDS011;75024;43.486;3.794;2024-01-15T14:00:36;0.22;;;0.20;;
84790;SDS011;75024;43.486;3.794;2024-01-15T14:03:01;0.50;;;0.10;;
84790;SDS011;75024;43.486;3.794;2024-01-15T14:05:28;0.30;;;0.30;;
84790;SDS011;75024;43.486;3.794;2024-01-15T14:07:54;0.32;;;0.30;;
84790;SDS011;75024;43.486;3.794;2024-01-15T14:10:20;0.38;;;0.10;;
84790;SDS011;75024;43.486;3.794;2024-01-15T14:12:46;0.10;;;0.10;;
84790;SDS011;75024;43.486;3.794;2024-01-15T14:15:11;0.30;;;0.30;;
84790;SDS011;75024;43.486;3.794;2024-01-15T14:17:37;0.38;;;0.38;;
84790;SDS011;75024;43.486;3.794;2024-01-15T14:20:03;0.10;;;0.10;;
84790;SDS011;75024;43.486;3.794;2024-01-15T14:22:30;0.30;;;0.20;;
84790;SDS011;75024;43.486;3.794;2024-01-15T14:24:56;0.80;;;0.30;;
84790;SDS011;75024;43.486;3.794;2024-01-15T14:27:21;0.40;;;0.20;;
84790;SDS011;75024;43.486;3.794;2024-01-15T14:29:47;0.22;;;0.22;;
84790;SDS011;75024;43.486;3.794;2024-01-15T14:32:12;0.40;;;0.35;;
84790;SDS011;75024;43.486;3.794;2024-01-15T14:34:38;0.30;;;0.22;;
84790;SDS011;75024;43.486;3.794;2024-01-15T14:37:04;0.43;;;0.30;;
84790;SDS011;75024;43.486;3.794;2024-01-15T14:39:29;0.22;;;0.10;;
84790;SDS011;75024;43.486;3.794;2024-01-15T14:44:24;0.38;;;0.38;;
84790;SDS011;75024;43.486;3.794;2024-01-15T14:46:50;0.50;;;0.50;;
84790;SDS011;75024;43.486;3.794;2024-01-15T14:49:15;0.30;;;0.30;;